Time;durP1;ratioP1;P1;durP2;ratioP2;P2;SDS_P1;SDS_P2;PMS_P1;PMS_P2;Temp;Humidity;BMP_temperature;BMP_pressure;BME280_temperature;BME280_humidity;BME280_pressure;Samples;Min_cycle;Max_cycle;Signal;HPM_P1;HPM_P2
2021/12/02 00:01:09;;;;;;;3.00;0.70;;;;;;;18.38;49.31;99946.69;5069148;28;20566;-63
2021/12/02 00:03:35;;;;;;;3.67;0.60;;;;;;;18.38;48.99;99942.22;5043637;28;20551;-63
2021/12/02 00:06:01;;;;;;;3.80;0.70;;;;;;;18.40;48.77;99936.75;5048378;28;20040;-64
2021/12/02 00:08:26;;;;;;;6.57;1.10;;;;;;;18.38;48.94;99930.78;5049983;28;20501;-63
2021/12/02 00:10:52;;;;;;;3.28;0.38;;;;;;;18.36;48.44;99932.75;5032177;28;20041;-63
2021/12/02 00:13:22;;;;;;;4.82;0.70;;;;;;;18.35;48.60;99933.75;5051868;28;20040;-63
2021/12/02 00:15:57;;;;;;;3.08;0.80;;;;;;;18.33;48.74;99930.41;5069723;28;20497;-63
2021/12/02 00:21:05;;;;;;;2.65;0.70;;;;;;;18.28;48.49;99933.56;5049752;28;20053;-63
2021/12/02 00:23:34;;;;;;;2.40;0.50;;;;;;;18.32;49.04;99934.06;5051742;28;20045;-63
2021/12/02 00:26:12;;;;;;;3.78;0.65;;;;;;;18.29;48.66;99934.38;5068835;28;20044;-63
2021/12/02 00:28:38;;;;;;;4.80;0.95;;;;;;;18.26;48.13;99936.34;5051189;28;20029;-63
2021/12/02 00:31:03;;;;;;;5.50;0.80;;;;;;;18.25;48.81;99932.03;5050946;28;20071;-64
2021/12/02 00:33:30;;;;;;;5.25;0.80;;;;;;;18.28;48.53;99928.25;5032215;28;20064;-63
2021/12/02 00:35:55;;;;;;;5.35;0.90;;;;;;;18.27;48.67;99938.03;5031219;28;20116;-63
2021/12/02 00:38:22;;;;;;;3.58;0.80;;;;;;;18.26;48.61;99936.34;5048675;28;20519;-63
2021/12/02 00:40:48;;;;;;;3.97;0.90;;;;;;;18.23;48.34;99935.84;5049220;28;20114;-63
2021/12/02 00:43:13;;;;;;;3.38;0.43;;;;;;;18.23;48.53;99928.72;5030951;28;20561;-63
2021/12/02 00:45:40;;;;;;;2.38;0.60;;;;;;;18.22;48.63;99921.75;5060655;28;20071;-63
2021/12/02 00:48:07;;;;;;;4.20;0.77;;;;;;;18.23;48.46;99920.75;5050786;28;20515;-65
2021/12/02 00:50:33;;;;;;;4.22;0.68;;;;;;;18.20;48.48;99930.84;5034431;28;20028;-63
2021/12/02 00:52:58;;;;;;;2.80;0.68;;;;;;;18.18;48.61;99938.97;5050392;28;20062;-63
2021/12/02 00:55:24;;;;;;;3.90;0.57;;;;;;;18.15;48.18;99939.31;5050354;28;20496;-63
2021/12/02 00:57:49;;;;;;;4.85;0.77;;;;;;;18.17;48.30;99941.78;5034673;28;20542;-63
2021/12/02 01:00:15;;;;;;;3.47;0.70;;;;;;;18.11;48.02;99943.25;5050370;28;20037;-63
2021/12/02 01:02:40;;;;;;;4.85;0.85;;;;;;;18.12;48.29;99963.50;5068942;28;20049;-63
2021/12/02 01:05:06;;;;;;;2.97;0.70;;;;;;;18.10;48.03;99954.03;5033591;28;20037;-63
2021/12/02 01:07:32;;;;;;;2.80;0.40;;;;;;;18.06;48.37;99939.41;5050969;28;20040;-63
2021/12/02 01:09:57;;;;;;;4.10;0.65;;;;;;;18.08;47.89;99934.78;5051016;28;20451;-63
2021/12/02 01:12:23;;;;;;;3.97;0.70;;;;;;;18.09;47.91;99939.94;5031382;28;20476;-63
2021/12/02 01:14:48;;;;;;;4.63;0.70;;;;;;;18.07;47.96;99947.22;5068634;28;20029;-63
2021/12/02 01:17:14;;;;;;;2.75;0.57;;;;;;;18.07;48.00;99946.38;5066654;28;20113;-63
2021/12/02 01:19:39;;;;;;;3.65;0.50;;;;;;;18.05;47.99;99943.91;5048465;28;20386;-63
2021/12/02 01:22:05;;;;;;;4.25;0.75;;;;;;;18.06;47.95;99944.72;5036060;28;20653;-63
2021/12/02 01:24:30;;;;;;;3.50;0.60;;;;;;;18.04;48.01;99966.94;5050811;28;20405;-63
2021/12/02 01:26:55;;;;;;;3.10;0.40;;;;;;;18.02;48.22;99960.13;5050897;28;20441;-63
2021/12/02 01:29:22;;;;;;;2.78;0.50;;;;;;;18.02;47.90;99962.78;5015909;28;20072;-63
2021/12/02 01:31:50;;;;;;;2.38;0.50;;;;;;;17.99;47.82;99965.75;5032368;28;20403;-63
2021/12/02 01:34:15;;;;;;;3.83;0.50;;;;;;;17.97;47.95;99963.25;5038722;28;20033;-63
2021/12/02 01:36:41;;;;;;;3.72;0.60;;;;;;;17.98;47.74;99967.56;5050301;28;20052;-63
2021/12/02 01:39:07;;;;;;;4.97;0.50;;;;;;;17.95;48.13;99969.69;5067745;28;20492;-64
2021/12/02 01:41:59;;;;;;;2.75;0.73;;;;;;;17.93;47.93;99966.38;5050330;28;20053;-63
2021/12/02 01:44:25;;;;;;;4.07;0.60;;;;;;;17.93;48.18;99969.03;5025241;28;20603;-63
2021/12/02 01:46:53;;;;;;;3.58;0.73;;;;;;;17.94;48.06;99962.72;5008498;28;20045;-63
2021/12/02 01:49:21;;;;;;;2.78;0.40;;;;;;;17.93;47.81;99974.34;5009065;28;20034;-63
2021/12/02 01:51:47;;;;;;;2.60;0.63;;;;;;;17.92;47.94;99970.84;5028291;28;20072;-63
2021/12/02 01:54:15;;;;;;;2.17;0.52;;;;;;;17.89;47.91;99976.44;5057580;28;20039;-63
2021/12/02 01:56:49;;;;;;;3.40;0.40;;;;;;;17.87;47.87;99973.13;5068294;28;20032;-63
2021/12/02 01:59:41;;;;;;;3.45;0.50;;;;;;;17.87;47.69;99988.22;5050579;28;20036;-63
2021/12/02 02:02:09;;;;;;;3.28;0.60;;;;;;;17.85;48.05;100000.81;5063625;28;20214;-63
2021/12/02 02:04:35;;;;;;;2.17;0.60;;;;;;;17.76;47.87;99997.22;5050362;28;20459;-63
2021/12/02 02:07:04;;;;;;;3.38;0.50;;;;;;;17.74;47.87;100000.03;5030342;28;20528;-63
2021/12/02 02:09:33;;;;;;;3.50;0.60;;;;;;;17.76;47.81;99982.13;5029762;28;20575;-63
2021/12/02 02:12:06;;;;;;;2.30;0.52;;;;;;;17.76;47.95;99990.09;5047944;28;20811;-63
2021/12/02 02:14:32;;;;;;;3.25;0.70;;;;;;;17.74;47.95;99978.81;5027578;28;20044;-63
2021/12/02 02:17:01;;;;;;;2.92;0.60;;;;;;;17.75;47.73;99982.31;5047746;28;20041;-63
2021/12/02 02:19:31;;;;;;;4.88;0.68;;;;;;;17.71;47.81;99968.53;5049011;28;20047;-63
2021/12/02 02:21:57;;;;;;;3.97;0.60;;;;;;;17.72;47.86;99966.69;5051017;28;20488;-63
2021/12/02 02:24:23;;;;;;;3.55;0.40;;;;;;;17.69;48.11;99959.06;5067551;28;20048;-63
2021/12/02 02:26:48;;;;;;;1.70;0.52;;;;;;;17.66;48.05;99981.41;5013267;28;20037;-63
2021/12/02 02:29:14;;;;;;;2.83;0.45;;;;;;;17.67;48.07;99982.22;5047515;28;20044;-63
2021/12/02 02:31:41;;;;;;;2.17;0.40;;;;;;;17.64;48.61;99972.75;5047841;28;20037;-63
2021/12/02 02:34:06;;;;;;;3.33;0.40;;;;;;;17.64;48.22;99985.19;5047274;28;20481;-63
2021/12/02 02:36:36;;;;;;;4.20;0.30;;;;;;;17.65;47.79;99979.75;5047910;28;20041;-63
2021/12/02 02:39:03;;;;;;;2.55;0.50;;;;;;;17.61;48.20;99990.81;5047081;28;20048;-64
2021/12/02 02:41:39;;;;;;;2.50;0.40;;;;;;;17.58;47.86;99978.72;5047734;28;20033;-63
2021/12/02 02:44:04;;;;;;;4.43;0.50;;;;;;;17.58;47.95;99989.31;5029685;28;20037;-63
2021/12/02 02:46:34;;;;;;;4.50;0.40;;;;;;;17.63;48.22;99987.00;5047741;28;20086;-63
2021/12/02 02:49:01;;;;;;;2.85;0.40;;;;;;;17.60;47.79;99987.31;5028846;28;20056;-63
2021/12/02 02:51:26;;;;;;;1.88;0.38;;;;;;;17.56;47.62;99984.16;5028694;28;20037;-63
2021/12/02 02:53:55;;;;;;;2.45;0.40;;;;;;;17.55;48.04;99982.50;5047337;28;20643;-63
2021/12/02 02:56:21;;;;;;;2.60;0.45;;;;;;;17.56;47.90;99985.97;5046764;28;20562;-63
2021/12/02 03:01:48;;;;;;;3.70;0.40;;;;;;;17.55;47.84;99974.53;5030679;28;20370;-63
2021/12/02 03:11:56;;;;;;;3.10;0.50;;;;;;;17.52;48.12;99992.56;4989254;28;20046;-63
2021/12/02 03:14:30;;;;;;;2.97;0.40;;;;;;;17.55;48.03;99994.94;5007289;28;20045;-63
2021/12/02 03:16:55;;;;;;;3.53;0.40;;;;;;;17.52;47.65;99996.06;5030705;28;20033;-63
2021/12/02 03:19:23;;;;;;;2.38;0.30;;;;;;;17.50;47.97;99990.06;5047531;28;20396;-64
2021/12/02 03:21:48;;;;;;;3.22;0.60;;;;;;;17.48;47.97;99994.69;5033355;28;20102;-63
2021/12/02 03:24:14;;;;;;;1.95;0.50;;;;;;;17.47;48.13;99992.19;5050209;28;20044;-63
2021/12/02 03:26:40;;;;;;;3.10;0.50;;;;;;;17.47;48.31;99992.19;5033014;28;20522;-63
2021/12/02 03:29:05;;;;;;;3.85;0.77;;;;;;;17.47;47.70;99986.88;5032517;28;20045;-63
2021/12/02 03:31:31;;;;;;;1.60;0.40;;;;;;;17.45;47.69;99984.38;5016567;28;20107;-62
2021/12/02 03:33:56;;;;;;;2.33;0.60;;;;;;;17.42;47.71;99973.25;5033096;28;20094;-63
2021/12/02 03:36:22;;;;;;;2.72;0.50;;;;;;;17.44;47.85;99987.19;5050166;28;20127;-62
2021/12/02 03:38:47;;;;;;;3.10;0.40;;;;;;;17.44;47.53;99981.88;5032877;28;20107;-63
2021/12/02 03:41:13;;;;;;;2.72;0.40;;;;;;;17.42;47.77;99983.84;5050316;28;20389;-63
2021/12/02 03:43:41;;;;;;;3.40;0.50;;;;;;;17.38;47.25;99977.19;5032958;28;20029;-63
2021/12/02 03:46:07;;;;;;;2.30;0.50;;;;;;;17.39;47.83;99984.97;5049222;28;20041;-63
2021/12/02 03:48:33;;;;;;;2.33;0.35;;;;;;;17.39;47.64;99978.84;5032373;28;20030;-63
2021/12/02 03:50:58;;;;;;;2.60;0.30;;;;;;;17.41;47.60;99992.78;5050389;28;20037;-63
2021/12/02 03:53:24;;;;;;;3.70;0.50;;;;;;;17.35;47.49;99995.06;5015601;28;20063;-63
2021/12/02 03:55:49;;;;;;;7.90;0.52;;;;;;;17.37;47.52;100012.66;5032577;28;20580;-63
2021/12/02 03:58:14;;;;;;;2.55;0.40;;;;;;;17.34;47.55;100004.00;5031909;28;20044;-63
2021/12/02 04:00:40;;;;;;;2.35;0.40;;;;;;;17.30;47.44;100002.66;5055814;28;20452;-63
2021/12/02 04:03:05;;;;;;;3.55;0.30;;;;;;;17.30;47.45;100001.81;5069623;28;20040;-64
2021/12/02 04:05:31;;;;;;;2.95;0.40;;;;;;;17.31;47.54;99998.19;5035344;28;20025;-63
2021/12/02 04:07:56;;;;;;;3.20;0.40;;;;;;;17.31;47.54;99988.41;5035773;28;20117;-63
2021/12/02 04:10:22;;;;;;;1.92;0.30;;;;;;;17.27;47.66;99996.81;5035026;28;20173;-63
2021/12/02 04:15:40;;;;;;;2.15;0.22;;;;;;;17.28;47.43;99999.31;5054059;28;20378;-63
2021/12/02 04:18:06;;;;;;;1.85;0.32;;;;;;;17.24;47.36;100005.91;5038268;28;20049;-63
2021/12/02 04:20:32;;;;;;;1.63;0.30;;;;;;;17.25;47.03;100004.09;5032079;28;20029;-63
2021/12/02 04:22:57;;;;;;;1.65;0.45;;;;;;;17.24;47.31;99997.97;5049805;28;20118;-63
2021/12/02 04:25:23;;;;;;;1.90;0.30;;;;;;;17.21;47.38;100000.91;5049014;28;20132;-63
2021/12/02 04:27:49;;;;;;;2.65;0.38;;;;;;;17.27;47.55;100002.97;5045678;28;20048;-63
2021/12/02 04:30:15;;;;;;;3.50;0.38;;;;;;;17.23;47.50;100004.22;5051303;28;20036;-63
2021/12/02 04:32:41;;;;;;;2.90;0.30;;;;;;;17.26;47.76;100001.28;5051795;28;20047;-63
2021/12/02 04:35:07;;;;;;;2.88;0.25;;;;;;;17.24;47.09;100003.25;5068976;28;20032;-63
2021/12/02 04:37:32;;;;;;;2.28;0.40;;;;;;;17.19;47.54;100000.22;5069400;28;20795;-63
2021/12/02 04:39:58;;;;;;;2.10;0.43;;;;;;;17.20;47.47;100001.88;5051760;28;20052;-63
2021/12/02 04:42:23;;;;;;;2.80;0.40;;;;;;;17.18;47.37;100001.22;5051143;28;20029;-63
2021/12/02 04:44:49;;;;;;;2.40;0.30;;;;;;;17.20;46.89;100015.13;5051288;28;20745;-63
2021/12/02 04:47:15;;;;;;;3.92;0.40;;;;;;;17.20;47.15;100023.06;5034097;28;20138;-63
2021/12/02 04:49:41;;;;;;;3.25;0.40;;;;;;;17.14;47.43;100031.63;5069291;28;20055;-63
2021/12/02 04:52:07;;;;;;;2.58;0.32;;;;;;;17.15;47.72;100029.84;5051254;28;20079;-63
2021/12/02 04:54:32;;;;;;;1.95;0.30;;;;;;;17.12;47.57;100025.66;5069218;28;20040;-63
2021/12/02 04:56:57;;;;;;;2.20;0.40;;;;;;;17.15;47.11;100045.72;5069294;28;20416;-63
2021/12/02 04:59:23;;;;;;;2.33;0.45;;;;;;;17.10;47.73;100032.91;5068332;28;20443;-63
2021/12/02 05:01:48;;;;;;;3.35;0.43;;;;;;;17.10;47.55;100032.91;5069052;28;20488;-63
2021/12/02 05:04:14;;;;;;;3.30;0.52;;;;;;;17.11;47.26;100034.59;5050690;28;20494;-63
2021/12/02 05:06:39;;;;;;;2.20;0.30;;;;;;;17.06;46.97;100035.03;5034765;28;20075;-63
2021/12/02 05:09:04;;;;;;;1.23;0.30;;;;;;;17.09;47.17;100028.59;5068097;28;20037;-63
2021/12/02 05:11:30;;;;;;;2.28;0.40;;;;;;;17.09;47.10;100025.97;5068862;28;20072;-63
2021/12/02 05:13:55;;;;;;;3.85;0.30;;;;;;;17.06;47.01;100026.25;5068692;28;20032;-63
2021/12/02 05:16:21;;;;;;;2.38;0.50;;;;;;;17.06;47.57;100016.47;5068276;28;20504;-62
2021/12/02 05:18:46;;;;;;;3.55;0.55;;;;;;;17.06;47.72;100023.59;5045723;28;20045;-63
2021/12/02 05:21:12;;;;;;;4.60;0.60;;;;;;;17.07;47.02;100023.44;5068131;28;20033;-63
2021/12/02 05:23:37;;;;;;;1.65;0.30;;;;;;;17.06;47.77;100021.78;5050902;28;20396;-63
2021/12/02 05:26:03;;;;;;;1.95;0.40;;;;;;;17.02;47.80;100016.94;5068165;28;20070;-64
2021/12/02 05:28:28;;;;;;;2.65;0.35;;;;;;;17.01;47.59;100015.25;5050022;28;20032;-63
2021/12/02 05:30:54;;;;;;;2.10;0.35;;;;;;;17.06;47.51;100013.84;5068663;28;20412;-63
2021/12/02 05:33:19;;;;;;;3.17;0.40;;;;;;;17.10;47.16;100007.25;5049899;28;20438;-63
2021/12/02 05:35:44;;;;;;;2.45;0.30;;;;;;;17.18;47.88;99987.13;5068424;28;20044;-63
2021/12/02 05:38:11;;;;;;;2.65;0.30;;;;;;;17.26;47.67;100017.16;5067066;28;20051;-63
2021/12/02 05:40:37;;;;;;;2.50;0.52;;;;;;;17.31;47.85;100036.13;5068124;28;20051;-63
2021/12/02 05:43:02;;;;;;;5.55;0.57;;;;;;;17.41;47.93;100025.44;5050054;28;20119;-64
2021/12/02 05:45:27;;;;;;;2.65;0.40;;;;;;;17.48;47.82;100038.94;5068351;28;20060;-63
2021/12/02 05:47:53;;;;;;;2.03;0.40;;;;;;;17.52;47.56;100032.34;5067667;28;20416;-63
2021/12/02 05:50:18;;;;;;;3.83;0.50;;;;;;;17.54;47.70;100033.00;5067709;28;20119;-63
2021/12/02 05:52:44;;;;;;;5.93;0.80;;;;;;;17.58;47.61;100031.75;5068382;28;20484;-63
2021/12/02 05:55:09;;;;;;;3.15;0.60;;;;;;;17.60;47.65;100024.44;5067608;28;20049;-63
2021/12/02 05:57:35;;;;;;;3.05;0.50;;;;;;;17.63;47.77;100028.63;5050120;28;20069;-63
2021/12/02 06:00:00;;;;;;;3.80;0.35;;;;;;;17.68;47.78;100036.97;5068142;28;20375;-64
2021/12/02 06:02:26;;;;;;;5.05;0.60;;;;;;;17.75;47.76;100038.00;5049780;28;20029;-63
2021/12/02 06:04:52;;;;;;;1.52;0.30;;;;;;;17.80;47.66;100022.50;5058441;28;20041;-63
2021/12/02 06:07:19;;;;;;;2.17;0.50;;;;;;;17.89;47.41;100023.38;5057286;28;20051;-63
2021/12/02 06:09:45;;;;;;;4.28;0.50;;;;;;;17.94;47.64;100026.41;5056303;28;20071;-63
2021/12/02 06:12:10;;;;;;;1.73;0.30;;;;;;;17.94;47.82;100027.25;5049872;28;20048;-63
2021/12/02 06:14:36;;;;;;;2.55;0.60;;;;;;;17.99;47.90;100029.44;5057203;28;20496;-63
2021/12/02 06:17:01;;;;;;;1.77;0.30;;;;;;;17.97;48.39;100031.41;5058904;28;20113;-64
2021/12/02 06:19:26;;;;;;;2.40;0.30;;;;;;;18.00;48.08;100033.75;5043114;28;20029;-63
2021/12/02 06:21:52;;;;;;;3.50;0.20;;;;;;;18.09;47.98;100030.19;5052868;28;20080;-63
2021/12/02 06:24:18;;;;;;;2.45;0.30;;;;;;;18.13;48.17;100038.66;5064585;28;20056;-63
2021/12/02 06:26:43;;;;;;;4.13;0.38;;;;;;;18.18;47.80;100052.31;5064406;28;20048;-63
2021/12/02 06:29:08;;;;;;;2.55;0.35;;;;;;;18.21;47.90;100058.13;5046959;28;20098;-63
2021/12/02 06:31:34;;;;;;;4.25;0.55;;;;;;;18.24;48.26;100064.97;5049916;28;20037;-63
2021/12/02 06:33:59;;;;;;;2.40;0.30;;;;;;;18.25;47.99;100051.50;5064197;28;20073;-63
2021/12/02 06:36:25;;;;;;;3.65;0.77;;;;;;;18.29;47.75;100061.81;5047159;28;20029;-63
2021/12/02 06:38:50;;;;;;;2.63;0.40;;;;;;;18.31;47.83;100060.69;5067373;28;20842;-63
2021/12/02 06:41:16;;;;;;;1.58;0.40;;;;;;;18.36;48.08;100062.84;5049151;28;20041;-63
2021/12/02 06:43:41;;;;;;;3.67;0.50;;;;;;;18.37;47.86;100070.69;5032232;28;20037;-63
2021/12/02 06:46:07;;;;;;;2.25;0.35;;;;;;;18.38;47.96;100071.50;5055536;28;20052;-63
2021/12/02 06:48:32;;;;;;;2.00;0.30;;;;;;;18.42;47.75;100072.84;5046041;28;20037;-63
2021/12/02 06:50:57;;;;;;;3.60;0.35;;;;;;;18.40;47.88;100064.22;5050209;28;20787;-63
2021/12/02 06:53:23;;;;;;;3.67;0.40;;;;;;;18.43;47.89;100077.19;5053600;28;20052;-63
2021/12/02 06:55:48;;;;;;;3.92;0.50;;;;;;;18.43;47.73;100090.47;5066724;28;20464;-63
2021/12/02 06:58:14;;;;;;;2.08;0.30;;;;;;;18.46;48.08;100098.13;5067775;28;20761;-63
2021/12/02 07:00:39;;;;;;;3.00;0.50;;;;;;;18.47;48.17;100107.75;5067681;28;20060;-63
2021/12/02 07:03:05;;;;;;;3.25;0.50;;;;;;;18.50;48.15;100113.56;5050104;28;20045;-61
2021/12/02 07:05:32;;;;;;;3.47;0.40;;;;;;;18.52;47.90;100116.09;5062494;28;20041;-62
2021/12/02 07:07:58;;;;;;;3.92;0.60;;;;;;;18.53;47.82;100109.78;5051095;28;20041;-62
2021/12/02 07:10:25;;;;;;;2.70;0.40;;;;;;;18.56;48.02;100111.28;5047928;28;20055;-62
2021/12/02 07:12:54;;;;;;;2.25;0.40;;;;;;;18.53;48.02;100106.31;5038108;28;20049;-62
2021/12/02 07:15:24;;;;;;;4.70;0.88;;;;;;;18.55;48.09;100099.84;5054014;28;20036;-62
2021/12/02 07:17:54;;;;;;;2.88;0.50;;;;;;;18.56;47.99;100105.97;5053654;28;20558;-62
2021/12/02 07:20:19;;;;;;;1.95;0.40;;;;;;;18.56;47.99;100113.94;5053265;28;20048;-62
2021/12/02 07:22:45;;;;;;;2.65;0.30;;;;;;;18.58;48.08;100109.28;5061126;28;20122;-62
2021/12/02 07:25:10;;;;;;;2.00;0.30;;;;;;;18.59;48.08;100114.47;5037416;28;20072;-62
2021/12/02 07:27:36;;;;;;;2.25;0.30;;;;;;;18.58;47.97;100123.41;5060119;28;20397;-62
2021/12/02 07:30:03;;;;;;;2.67;0.50;;;;;;;18.58;47.63;100125.22;5049204;28;20400;-63
2021/12/02 07:32:39;;;;;;;2.38;0.43;;;;;;;18.62;47.66;100127.44;5049805;28;20052;-62
2021/12/02 07:35:12;;;;;;;2.67;0.40;;;;;;;18.62;47.99;100119.47;5035894;28;20043;-63
2021/12/02 07:37:49;;;;;;;2.20;0.30;;;;;;;18.61;47.58;100131.06;5041247;28;20497;-62
2021/12/02 07:40:15;;;;;;;3.22;0.32;;;;;;;18.64;48.01;100129.91;5053587;28;20039;-62
2021/12/02 07:42:40;;;;;;;2.10;0.40;;;;;;;18.65;47.65;100143.06;5039612;28;20105;-63
2021/12/02 07:45:07;;;;;;;2.50;0.32;;;;;;;18.66;47.89;100150.03;5042126;28;20453;-64
2021/12/02 07:47:33;;;;;;;2.20;0.30;;;;;;;18.65;47.66;100159.00;5059769;28;20075;-63
2021/12/02 07:49:59;;;;;;;2.70;0.50;;;;;;;18.64;47.67;100146.69;5035481;28;20047;-63
2021/12/02 07:52:25;;;;;;;2.38;0.50;;;;;;;18.65;47.72;100179.44;5050849;28;20041;-63
2021/12/02 07:54:51;;;;;;;2.38;0.30;;;;;;;18.65;48.08;100187.41;5055914;28;20562;-63
2021/12/02 07:57:16;;;;;;;1.33;0.25;;;;;;;18.64;47.67;100194.50;5052285;28;20520;-63
2021/12/02 07:59:41;;;;;;;2.25;0.32;;;;;;;18.65;48.04;100198.84;5051465;28;20040;-63
2021/12/02 08:02:13;;;;;;;2.33;0.60;;;;;;;18.65;47.41;100196.19;5049926;28;20128;-63
2021/12/02 08:04:39;;;;;;;1.67;0.30;;;;;;;18.65;47.45;100206.00;5012981;28;20044;-63
2021/12/02 08:07:04;;;;;;;4.50;0.40;;;;;;;18.65;48.03;100206.81;5030114;28;20441;-64
2021/12/02 08:09:29;;;;;;;0.90;0.20;;;;;;;18.65;47.73;100195.38;5039832;28;20477;-63
2021/12/02 08:11:58;;;;;;;3.10;0.30;;;;;;;18.66;47.70;100194.38;5041873;28;20535;-62
2021/12/02 08:14:24;;;;;;;0.90;0.20;;;;;;;18.67;47.65;100199.50;5049969;28;20028;-64
2021/12/02 08:16:49;;;;;;;1.27;0.40;;;;;;;18.66;47.56;100186.41;5018382;28;20047;-63
2021/12/02 08:19:15;;;;;;;0.77;0.17;;;;;;;18.66;48.01;100165.97;5035386;28;20400;-63
2021/12/02 08:21:40;;;;;;;1.50;0.30;;;;;;;18.68;47.95;100179.94;5054611;28;20631;-63
2021/12/02 08:24:05;;;;;;;1.73;0.30;;;;;;;18.68;47.19;100190.56;5068745;28;20493;-64
2021/12/02 08:26:32;;;;;;;2.17;0.30;;;;;;;18.69;47.75;100212.66;5050467;28;20044;-63
2021/12/02 08:28:57;;;;;;;1.52;0.28;;;;;;;18.69;47.38;100217.97;5035498;28;20041;-63
2021/12/02 08:31:22;;;;;;;1.35;0.20;;;;;;;18.69;47.82;100223.28;5030961;28;20033;-63
2021/12/02 08:33:50;;;;;;;1.23;0.20;;;;;;;18.69;47.34;100224.13;5031320;28;20047;-63
2021/12/02 08:36:16;;;;;;;1.33;0.30;;;;;;;18.69;47.71;100216.16;5060866;28;20051;-63
2021/12/02 08:38:42;;;;;;;1.95;0.30;;;;;;;18.71;47.90;100231.94;5034872;28;20041;-63
2021/12/02 08:41:07;;;;;;;2.13;0.40;;;;;;;18.71;47.53;100226.63;5049979;28;20689;-63
2021/12/02 08:43:32;;;;;;;2.88;0.40;;;;;;;18.70;47.47;100236.41;5060121;28;20041;-63
2021/12/02 08:45:58;;;;;;;1.50;0.25;;;;;;;18.70;47.68;100230.25;5058147;28;20037;-63
2021/12/02 08:48:23;;;;;;;1.58;0.28;;;;;;;18.69;47.57;100240.06;5033712;28;20050;-63
2021/12/02 08:50:49;;;;;;;2.03;0.20;;;;;;;18.69;47.05;100233.91;5049398;28;20036;-63
2021/12/02 08:53:15;;;;;;;2.38;0.30;;;;;;;18.70;47.15;100240.88;5050811;28;20573;-63
2021/12/02 08:55:40;;;;;;;1.15;0.20;;;;;;;18.71;47.17;100232.78;5051533;28;20557;-63
2021/12/02 08:58:07;;;;;;;1.95;0.30;;;;;;;18.72;47.21;100228.28;5068243;28;20055;-63
2021/12/02 09:00:34;;;;;;;2.10;0.25;;;;;;;18.73;47.06;100236.13;5061167;28;20038;-63
2021/12/02 09:03:00;;;;;;;3.40;0.40;;;;;;;18.75;47.36;100232.50;5050983;28;20399;-62
2021/12/02 09:05:25;;;;;;;1.90;0.20;;;;;;;18.75;47.04;100236.00;5038348;28;20098;-63
2021/12/02 09:07:51;;;;;;;1.98;0.30;;;;;;;18.75;47.36;100241.31;5037905;28;20106;-63
2021/12/02 09:10:16;;;;;;;1.27;0.28;;;;;;;18.73;46.56;100229.97;5056629;28;20114;-62
2021/12/02 09:12:42;;;;;;;2.08;0.43;;;;;;;18.73;47.27;100229.97;5061468;28;20040;-62
2021/12/02 09:15:08;;;;;;;1.77;0.22;;;;;;;18.75;46.89;100227.19;5063565;28;20036;-62
2021/12/02 09:17:35;;;;;;;1.50;0.20;;;;;;;18.76;47.01;100219.03;5049762;28;20055;-62
2021/12/02 09:20:01;;;;;;;1.70;0.32;;;;;;;18.78;46.81;100232.19;5068160;28;20071;-64
2021/12/02 09:22:26;;;;;;;1.08;0.20;;;;;;;18.76;46.87;100268.69;5051537;28;20344;-62
2021/12/02 09:24:51;;;;;;;0.63;0.20;;;;;;;18.76;47.16;100295.28;5048158;28;20045;-62
2021/12/02 09:27:18;;;;;;;1.98;0.30;;;;;;;18.74;47.11;100308.72;5050253;28;20036;-62
2021/12/02 09:29:43;;;;;;;1.73;0.50;;;;;;;18.73;47.58;100302.56;5050228;28;20072;-62
2021/12/02 09:32:11;;;;;;;3.30;0.60;;;;;;;18.71;47.68;100312.50;5067326;28;20043;-63
2021/12/02 09:34:36;;;;;;;1.17;0.20;;;;;;;18.73;47.20;100313.19;5068278;28;20435;-62
2021/12/02 09:37:02;;;;;;;1.65;0.35;;;;;;;18.73;47.24;100309.69;5050156;28;20048;-62
2021/12/02 09:39:32;;;;;;;3.58;0.47;;;;;;;18.72;47.22;100314.19;5068365;28;20044;-62
2021/12/02 09:41:57;;;;;;;2.25;0.30;;;;;;;18.72;47.04;100313.31;5062168;28;20162;-62
2021/12/02 09:44:23;;;;;;;2.78;0.40;;;;;;;18.70;47.03;100318.78;5050210;28;20052;-62
2021/12/02 09:46:48;;;;;;;2.22;0.40;;;;;;;18.68;47.51;100318.09;5030330;28;20045;-62
2021/12/02 09:49:15;;;;;;;1.75;0.35;;;;;;;18.68;46.72;100325.25;5047498;28;20114;-63
2021/12/02 09:51:59;;;;;;;2.70;0.45;;;;;;;18.67;47.59;100331.53;5049074;28;20075;-62
2021/12/02 09:54:44;;;;;;;2.05;0.30;;;;;;;18.70;47.51;100342.69;5067269;28;20029;-63
2021/12/02 09:57:14;;;;;;;1.33;0.30;;;;;;;18.70;47.23;100361.28;5035238;28;20037;-62
2021/12/02 09:59:49;;;;;;;2.78;0.30;;;;;;;18.70;47.25;100374.56;5048010;28;20815;-63
2021/12/02 10:02:17;;;;;;;2.95;0.30;;;;;;;18.72;47.19;100382.41;5029295;28;20052;-63
2021/12/02 10:04:47;;;;;;;1.40;0.40;;;;;;;18.73;47.13;100392.06;5063771;28;20492;-63
2021/12/02 10:07:39;;;;;;;1.60;0.30;;;;;;;18.71;47.13;100378.09;5053111;28;20504;-63
2021/12/02 10:12:37;;;;;;;1.38;0.28;;;;;;;18.71;47.20;100378.91;5048112;28;20045;-63
2021/12/02 10:15:08;;;;;;;2.50;0.35;;;;;;;18.71;47.37;100381.56;5067280;28;20048;-64
2021/12/02 10:17:44;;;;;;;2.70;0.40;;;;;;;18.72;47.62;100390.38;5050568;28;20037;-63
2021/12/02 10:23:28;;;;;;;1.13;0.30;;;;;;;18.72;47.23;100393.03;5068232;28;20194;-63
2021/12/02 10:25:57;;;;;;;1.20;0.30;;;;;;;18.72;47.80;100403.66;5055359;28;20044;-63
2021/12/02 10:28:23;;;;;;;1.40;0.40;;;;;;;18.70;47.68;100406.44;5033327;28;20037;-63
2021/12/02 10:30:51;;;;;;;2.00;0.30;;;;;;;18.69;47.65;100426.03;5017726;28;20068;-63
2021/12/02 10:33:28;;;;;;;3.25;0.30;;;;;;;18.69;47.27;100436.69;5035434;28;20049;-63
2021/12/02 10:35:54;;;;;;;2.30;0.30;;;;;;;18.70;47.37;100433.03;5071552;28;20056;-63
2021/12/02 10:38:35;;;;;;;1.45;0.20;;;;;;;18.72;47.47;100430.22;5071032;28;20036;-63
2021/12/02 10:41:02;;;;;;;1.33;0.20;;;;;;;18.72;47.19;100420.47;5071679;28;20046;-63
2021/12/02 10:43:27;;;;;;;1.75;0.25;;;;;;;18.73;47.00;100422.13;5050613;28;20504;-63
2021/12/02 10:46:11;;;;;;;1.10;0.20;;;;;;;18.73;47.44;100398.22;5057185;28;20048;-63
2021/12/02 10:48:44;;;;;;;2.13;0.38;;;;;;;18.73;46.93;100390.25;5022433;28;20068;-63
2021/12/02 10:51:11;;;;;;;1.35;0.30;;;;;;;18.74;46.73;100399.06;5033033;28;20044;-63
2021/12/02 10:53:37;;;;;;;1.33;0.30;;;;;;;18.75;47.36;100397.25;5032446;28;20485;-63
2021/12/02 10:56:02;;;;;;;1.17;0.30;;;;;;;18.76;47.49;100398.91;5016475;28;20064;-64
2021/12/02 10:58:31;;;;;;;1.67;0.30;;;;;;;18.77;46.85;100414.72;5045267;28;20120;-63
2021/12/02 11:00:56;;;;;;;2.03;0.28;;;;;;;18.78;47.71;100423.53;5070623;28;20049;-63
2021/12/02 11:03:23;;;;;;;2.65;0.32;;;;;;;18.79;47.48;100425.19;5016266;28;20045;-63
2021/12/02 11:05:49;;;;;;;1.42;0.30;;;;;;;18.80;47.36;100429.50;5054358;28;20040;-61
2021/12/02 11:08:15;;;;;;;1.52;0.35;;;;;;;18.79;47.60;100423.34;5057769;28;20625;-62
2021/12/02 11:10:46;;;;;;;1.10;0.30;;;;;;;18.77;46.55;100419.16;5036691;28;20044;-62
2021/12/02 11:13:16;;;;;;;;;;;;;;;18.75;47.16;100424.66;5059705;28;20043;-62
2021/12/02 11:15:41;;;;;;;1.33;0.30;;;;;;;18.79;46.50;100420.69;5059658;28;19925;-63
2021/12/02 11:18:11;;;;;;;0.60;0.20;;;;;;;18.82;47.45;100424.88;5059636;28;20124;-62
2021/12/02 11:20:37;;;;;;;2.90;0.40;;;;;;;18.84;47.19;100420.25;5070565;28;20029;-62
2021/12/02 11:23:14;;;;;;;1.00;0.20;;;;;;;18.87;46.84;100430.59;5060218;28;20045;-62
2021/12/02 11:26:04;;;;;;;0.80;0.30;;;;;;;18.82;46.63;100430.19;5058131;28;20047;-62
2021/12/02 11:28:35;;;;;;;1.50;0.40;;;;;;;18.85;46.97;100427.25;5051581;28;20761;-63
2021/12/02 11:31:14;;;;;;;2.08;0.30;;;;;;;18.86;47.00;100427.06;5014850;28;20128;-64
2021/12/02 11:33:40;;;;;;;1.38;0.30;;;;;;;18.87;46.82;100428.75;5033094;28;20030;-63
2021/12/02 11:36:07;;;;;;;2.10;0.38;;;;;;;18.89;46.86;100426.78;5061348;28;20171;-63
2021/12/02 11:38:33;;;;;;;2.85;0.47;;;;;;;18.91;47.07;100437.25;5070503;28;20479;-63
2021/12/02 11:41:03;;;;;;;0.68;0.20;;;;;;;18.88;47.47;100443.72;5052915;28;20033;-63
2021/12/02 11:43:30;;;;;;;1.25;0.32;;;;;;;18.88;47.60;100440.22;5057437;28;20595;-63
2021/12/02 11:45:56;;;;;;;2.03;0.30;;;;;;;18.87;47.68;100441.22;5059635;28;20072;-63
2021/12/02 11:48:38;;;;;;;2.25;0.40;;;;;;;18.87;47.00;100443.88;5067379;28;20037;-63
2021/12/02 11:51:14;;;;;;;2.63;0.50;;;;;;;18.86;46.99;100443.00;5065220;28;20140;-64